Time;durP1;ratioP1;P1;durP2;ratioP2;P2;SDS_P1;SDS_P2;PMS_P1;PMS_P2;Temp;Humidity;BMP_temperature;BMP_pressure;BME280_temperature;BME280_humidity;BME280_pressure;Samples;Min_cycle;Max_cycle;Signal;HPM_P1;HPM_P2
2022/01/15 00:00:42;;;;;;;172.40;55.83;;;6.10;99.90;;;6.13;100.00;103197.47;5071041;28;20052;-59
2022/01/15 00:03:14;;;;;;;131.63;55.78;;;6.00;99.90;;;6.35;100.00;103203.88;5070990;28;20295;-60
2022/01/15 00:05:46;;;;;;;126.53;55.63;;;6.20;99.90;;;6.44;100.00;103190.31;5071023;28;20044;-61
2022/01/15 00:08:15;;;;;;;121.22;53.83;;;6.30;99.90;;;6.57;100.00;103199.69;5071007;28;20474;-61
2022/01/15 00:10:43;;;;;;;138.07;58.13;;;6.50;99.90;;;6.44;100.00;103186.75;5074486;28;20076;-61
2022/01/15 00:13:23;;;;;;;142.00;57.33;;;6.40;99.90;;;6.46;100.00;103187.75;5075225;28;20045;-61
2022/01/15 00:16:02;;;;;;;136.02;57.00;;;6.40;99.90;;;6.54;100.00;103178.50;5075232;28;20335;-61
2022/01/15 00:18:42;;;;;;;116.68;53.85;;;6.50;99.90;;;6.50;100.00;103174.84;5090516;28;20178;-59
2022/01/15 00:21:12;;;;;;;135.70;58.17;;;6.40;99.90;;;6.51;100.00;103167.81;5074487;28;20131;-60
2022/01/15 00:23:40;;;;;;;118.38;53.50;;;6.50;99.90;;;6.53;100.00;103177.59;5074760;28;20379;-60
2022/01/15 00:26:09;;;;;;;135.55;55.40;;;6.50;99.90;;;6.79;100.00;103163.09;5074460;28;20143;-59
2022/01/15 00:28:39;;;;;;;191.90;57.28;;;6.60;99.90;;;6.57;100.00;103162.88;5074228;28;20071;-59
2022/01/15 00:31:07;;;;;;;105.25;51.20;;;6.60;99.90;;;6.35;100.00;103153.94;5074479;28;20048;-60
2022/01/15 00:33:35;;;;;;;118.95;49.75;;;6.40;99.90;;;6.49;100.00;103159.88;5074422;28;20052;-62
2022/01/15 00:36:04;;;;;;;106.80;47.60;;;6.30;99.90;;;6.29;100.00;103156.25;5074057;28;20076;-60
2022/01/15 00:38:33;;;;;;;104.10;49.08;;;6.20;99.90;;;5.95;100.00;103155.41;5074439;28;20079;-59
2022/01/15 00:41:02;;;;;;;113.38;48.47;;;5.90;99.90;;;5.79;100.00;103151.91;5074036;28;20043;-60
2022/01/15 00:43:30;;;;;;;108.20;49.47;;;5.80;99.90;;;5.77;100.00;103162.28;5074143;28;20414;-60
2022/01/15 00:46:00;;;;;;;116.80;48.27;;;5.60;99.90;;;5.59;100.00;103165.69;5073854;28;20056;-60
2022/01/15 00:48:29;;;;;;;129.98;48.72;;;5.60;99.90;;;5.44;100.00;103156.19;5074034;28;20442;-60
2022/01/15 00:50:57;;;;;;;112.17;47.20;;;5.40;99.90;;;5.32;100.00;103144.16;5073905;28;20041;-60
2022/01/15 00:53:25;;;;;;;132.47;49.20;;;5.30;99.90;;;5.32;100.00;103136.28;5073663;28;20110;-60
2022/01/15 00:55:54;;;;;;;115.60;47.63;;;5.30;99.90;;;5.45;100.00;103134.38;5073742;28;20114;-60
2022/01/15 00:58:22;;;;;;;134.67;50.87;;;5.40;99.90;;;5.40;100.00;103127.09;5072446;28;20207;-60
2022/01/15 01:00:51;;;;;;;138.93;49.13;;;5.40;99.90;;;5.28;100.00;103131.69;5074229;28;20044;-60
2022/01/15 01:03:20;;;;;;;146.57;50.73;;;5.30;99.90;;;5.44;100.00;103129.03;5073773;28;20072;-60
2022/01/15 01:05:49;;;;;;;138.23;49.37;;;5.30;99.90;;;5.14;100.00;103127.44;5073641;28;20124;-59
2022/01/15 01:08:17;;;;;;;152.37;50.40;;;5.20;99.90;;;5.09;100.00;103121.03;5073426;28;20328;-60
2022/01/15 01:10:57;;;;;;;136.47;50.50;;;5.00;99.90;;;5.17;100.00;103123.22;5073529;28;20463;-60
2022/01/15 01:24:37;;;;;;;138.43;51.10;;;5.40;99.90;;;5.52;100.00;103105.84;5073017;28;20072;-59
2022/01/15 01:27:11;;;;;;;220.90;51.83;;;5.50;99.90;;;5.33;100.00;103080.34;5073087;28;20037;-59
2022/01/15 01:29:51;;;;;;;135.97;49.97;;;5.40;99.90;;;5.55;100.00;103114.78;5073131;28;20163;-60
2022/01/15 01:32:38;;;;;;;149.10;50.55;;;5.50;99.90;;;5.27;100.00;103106.25;5073021;28;20045;-60
2022/01/15 01:35:13;;;;;;;124.53;46.80;;;5.20;99.90;;;5.09;100.00;103110.56;5072952;28;20052;-59
2022/01/15 01:37:46;;;;;;;123.67;45.10;;;5.10;99.90;;;5.01;100.00;103104.00;5073585;28;20056;-59
2022/01/15 01:40:20;;;;;;;144.20;47.43;;;5.00;99.90;;;4.79;100.00;103107.16;5073029;28;20068;-59
2022/01/15 01:42:59;;;;;;;136.97;47.70;;;4.80;99.90;;;4.75;100.00;103099.03;5073286;28;20470;-60
2022/01/15 01:45:28;;;;;;;128.30;44.07;;;4.70;99.90;;;4.63;100.00;103072.19;5072831;28;20492;-59
2022/01/15 01:47:56;;;;;;;123.40;47.07;;;4.70;99.90;;;4.75;100.00;103099.03;5072746;28;20059;-59
2022/01/15 01:50:29;;;;;;;126.73;46.30;;;4.70;99.90;;;4.78;100.00;103089.59;5072725;28;20128;-59
2022/01/15 01:52:59;;;;;;;142.70;46.93;;;4.80;99.90;;;4.73;100.00;103084.94;5072814;28;20569;-59
2022/01/15 01:55:29;;;;;;;131.65;47.08;;;4.70;99.90;;;4.73;100.00;103082.31;5072764;28;20048;-59
2022/01/15 01:58:00;;;;;;;135.52;47.45;;;4.70;99.90;;;4.43;100.00;103043.13;5071662;28;20554;-59
2022/01/15 02:00:30;;;;;;;146.90;47.05;;;4.70;99.90;;;4.66;100.00;103088.06;5072951;28;20121;-59
2022/01/15 02:03:01;;;;;;;122.07;46.97;;;4.60;99.90;;;4.72;100.00;103084.06;5073134;28;20071;-59
2022/01/15 02:05:31;;;;;;;123.15;46.40;;;4.70;99.90;;;4.72;100.00;103075.28;5072805;28;20040;-59
2022/01/15 02:07:59;;;;;;;133.70;48.17;;;4.70;99.90;;;4.69;100.00;103068.16;5072626;28;20049;-59
2022/01/15 02:10:28;;;;;;;137.17;46.53;;;4.60;99.90;;;4.64;100.00;103063.47;5071318;28;20466;-59
2022/01/15 02:12:56;;;;;;;136.83;46.53;;;4.60;99.90;;;4.65;100.00;103057.41;5072196;28;20520;-59
2022/01/15 02:15:25;;;;;;;142.63;47.97;;;4.60;99.90;;;4.68;100.00;103054.97;5072143;28;20435;-59
2022/01/15 02:17:55;;;;;;;142.90;48.57;;;4.60;99.90;;;4.72;100.00;103052.59;5072353;28;20187;-60
2022/01/15 02:21:00;;;;;;;147.53;47.80;;;4.70;99.90;;;4.72;100.00;103054.31;5072056;28;20565;-60
2022/01/15 02:23:33;;;;;;;146.90;47.97;;;4.70;99.90;;;4.73;100.00;103058.72;5071983;28;20068;-60
2022/01/15 02:26:05;;;;;;;113.97;45.60;;;4.70;99.90;;;4.71;100.00;103057.75;5072279;28;20049;-59
2022/01/15 02:28:36;;;;;;;134.17;47.00;;;4.70;99.90;;;4.64;100.00;103047.75;5071971;28;20053;-60
2022/01/15 02:31:06;;;;;;;157.13;48.63;;;4.60;99.90;;;4.59;100.00;103040.53;5071965;28;20115;-60
2022/01/15 02:33:36;;;;;;;147.07;48.13;;;4.60;99.90;;;4.63;100.00;103045.97;5071026;28;20504;-59
2022/01/15 02:36:09;;;;;;;171.67;49.10;;;4.60;99.90;;;4.65;100.00;103034.72;5071698;28;20145;-59
2022/01/15 02:38:37;;;;;;;161.83;50.17;;;4.60;99.90;;;4.82;100.00;103038.28;5071897;28;20041;-59
2022/01/15 02:41:06;;;;;;;137.90;47.27;;;4.70;99.90;;;4.78;100.00;103033.69;5071727;28;20056;-59
2022/01/15 02:43:35;;;;;;;200.77;48.90;;;4.70;99.90;;;4.74;100.00;103029.09;5072032;28;20127;-59
2022/01/15 02:46:22;;;;;;;198.80;46.80;;;4.70;99.90;;;4.55;100.00;103020.22;5070495;28;20048;-59
2022/01/15 02:48:54;;;;;;;164.13;44.50;;;4.60;99.90;;;4.67;100.00;103019.06;5071996;28;20048;-59
2022/01/15 02:51:26;;;;;;;132.90;43.40;;;4.60;99.90;;;4.78;100.00;103015.34;5071777;28;20044;-59
2022/01/15 02:53:55;;;;;;;160.83;41.67;;;4.80;99.90;;;4.65;100.00;103016.38;5072281;28;20109;-60
2022/01/15 02:56:25;;;;;;;106.90;39.93;;;4.70;99.90;;;4.54;100.00;103000.09;5071916;28;20149;-60
2022/01/15 02:58:53;;;;;;;136.53;43.43;;;4.70;99.90;;;4.56;100.00;103023.75;5071680;28;20040;-60
2022/01/15 03:01:22;;;;;;;131.17;39.20;;;4.60;99.90;;;4.40;100.00;103019.41;5071850;28;20044;-59
2022/01/15 03:03:51;;;;;;;129.80;42.33;;;4.40;99.90;;;4.30;100.00;103014.47;5072288;28;20063;-60
2022/01/15 03:06:21;;;;;;;146.27;42.20;;;4.30;99.90;;;4.24;100.00;103015.88;5072132;28;20123;-59
2022/01/15 03:08:52;;;;;;;171.38;44.85;;;4.20;99.90;;;4.25;100.00;102999.31;5071872;28;20048;-59
2022/01/15 03:11:22;;;;;;;175.50;43.43;;;4.30;99.90;;;4.17;100.00;102990.13;5071845;28;20068;-60
2022/01/15 03:13:51;;;;;;;156.35;43.25;;;4.20;99.90;;;4.14;100.00;102990.84;5071541;28;20052;-60
2022/01/15 03:16:22;;;;;;;153.47;40.40;;;4.10;99.90;;;4.15;100.00;102992.66;5071381;28;20074;-60
2022/01/15 03:18:51;;;;;;;156.47;44.47;;;4.20;99.90;;;4.18;100.00;102986.72;5071450;28;20082;-61
2022/01/15 03:21:20;;;;;;;181.27;46.23;;;4.20;99.90;;;4.05;100.00;102976.34;5071733;28;20072;-61
2022/01/15 03:23:50;;;;;;;152.30;42.03;;;4.20;99.90;;;4.27;100.00;102982.88;5071626;28;20075;-60
2022/01/15 03:26:18;;;;;;;148.52;43.58;;;4.20;99.90;;;4.32;100.00;102973.53;5070072;28;20064;-60
2022/01/15 03:28:47;;;;;;;156.27;40.50;;;4.40;99.90;;;4.32;100.00;102970.00;5071260;28;20098;-60
2022/01/15 03:31:15;;;;;;;110.53;37.63;;;4.30;99.90;;;4.58;100.00;102973.25;5071187;28;20081;-60
2022/01/15 03:33:44;;;;;;;128.57;40.40;;;4.50;99.90;;;4.31;100.00;102973.47;5071274;28;20052;-60
2022/01/15 03:36:12;;;;;;;151.03;40.53;;;4.40;99.90;;;4.34;100.00;102979.75;5071428;28;20052;-61
2022/01/15 03:38:41;;;;;;;113.90;38.80;;;4.40;99.90;;;4.39;100.00;102978.28;5071389;28;20441;-60
2022/01/15 03:41:11;;;;;;;120.87;35.40;;;4.40;99.90;;;3.99;100.00;102990.00;5071161;28;20079;-60
2022/01/15 03:43:40;;;;;;;143.18;38.65;;;4.10;99.90;;;3.95;100.00;102980.16;5071112;28;20049;-60
2022/01/15 03:46:09;;;;;;;163.38;40.53;;;4.00;99.90;;;3.92;100.00;102982.63;5074733;28;20070;-60
2022/01/15 03:48:37;;;;;;;168.53;40.07;;;4.00;99.90;;;3.85;100.00;102987.44;5075481;28;20145;-60
2022/01/15 03:51:06;;;;;;;142.77;38.57;;;3.90;99.90;;;3.78;100.00;102975.72;5075191;28;20068;-60
2022/01/15 03:53:34;;;;;;;155.13;38.20;;;3.80;99.90;;;3.71;100.00;102975.28;5075140;28;20415;-60
2022/01/15 03:56:03;;;;;;;149.80;39.47;;;3.80;99.90;;;3.78;100.00;102973.09;5075363;28;20087;-60
2022/01/15 03:58:32;;;;;;;176.23;43.30;;;3.80;99.90;;;3.88;100.00;102969.28;5075035;28;20409;-60
2022/01/15 04:01:01;;;;;;;178.68;42.00;;;3.90;99.90;;;4.01;100.00;102967.44;5074956;28;20098;-59
2022/01/15 04:03:30;;;;;;;159.33;41.20;;;4.00;99.90;;;4.07;100.00;102951.16;5074664;28;20056;-60
2022/01/15 04:05:58;;;;;;;131.90;40.07;;;4.10;99.90;;;4.21;100.00;102958.97;5074775;28;20438;-60
2022/01/15 04:08:26;;;;;;;132.93;39.33;;;4.20;99.90;;;4.23;100.00;102962.56;5074758;28;20053;-59
2022/01/15 04:10:55;;;;;;;132.90;41.47;;;4.20;99.90;;;4.25;100.00;102954.78;5074545;28;20092;-59
2022/01/15 04:13:23;;;;;;;147.00;39.13;;;4.30;99.90;;;4.25;100.00;102950.47;5073303;28;20067;-60
2022/01/15 04:15:53;;;;;;;168.93;41.53;;;4.30;99.90;;;4.13;100.00;102941.94;5074500;28;20136;-60
2022/01/15 04:18:23;;;;;;;199.23;40.72;;;4.20;99.90;;;4.19;100.00;102957.97;5074490;28;20066;-59
2022/01/15 04:20:52;;;;;;;160.43;39.47;;;4.20;99.90;;;4.15;100.00;102944.63;5074389;28;20143;-59
2022/01/15 04:23:20;;;;;;;182.40;40.43;;;4.10;99.90;;;4.26;100.00;102949.63;5074848;28;20048;-59
2022/01/15 04:25:48;;;;;;;153.17;39.53;;;4.20;99.90;;;4.16;100.00;102941.19;5074534;28;20135;-59
2022/01/15 04:28:17;;;;;;;148.83;40.70;;;4.10;99.90;;;4.03;100.00;102939.63;5074394;28;20044;-60
2022/01/15 04:30:47;;;;;;;165.40;37.77;;;4.10;99.90;;;4.01;100.00;102930.78;5074250;28;20394;-60
2022/01/15 04:33:17;;;;;;;158.10;40.67;;;4.00;99.90;;;4.05;100.00;102934.47;5074284;28;20098;-60
2022/01/15 04:35:45;;;;;;;130.77;40.40;;;4.00;99.90;;;4.14;100.00;102935.84;5074272;28;20127;-59
2022/01/15 04:38:14;;;;;;;154.23;41.57;;;4.10;99.90;;;4.25;100.00;102932.13;5074086;28;20127;-59
2022/01/15 04:40:42;;;;;;;166.37;41.37;;;4.20;99.90;;;4.15;100.00;102934.16;5074113;28;20407;-59
2022/01/15 04:43:11;;;;;;;165.20;42.50;;;4.10;99.90;;;4.13;100.00;102928.84;5074099;28;20040;-59
2022/01/15 04:45:39;;;;;;;137.33;39.97;;;4.10;99.90;;;4.31;100.00;102937.69;5074113;28;20041;-59
2022/01/15 04:48:07;;;;;;;100.57;39.20;;;4.20;99.90;;;4.19;100.00;102931.78;5074243;28;20461;-59
2022/01/15 04:50:37;;;;;;;131.23;39.83;;;4.20;99.90;;;4.13;100.00;102925.31;5074486;28;20412;-60
2022/01/15 04:53:08;;;;;;;140.40;37.95;;;4.10;99.90;;;3.87;100.00;102917.75;5074057;28;20460;-60
2022/01/15 04:55:37;;;;;;;143.93;37.90;;;3.90;99.90;;;3.88;100.00;102917.84;5072551;28;20399;-59
2022/01/15 04:58:07;;;;;;;171.67;40.10;;;3.90;99.90;;;3.81;100.00;102907.84;5073276;28;20052;-60
2022/01/15 05:00:36;;;;;;;173.38;37.42;;;3.80;99.90;;;3.84;100.00;102897.53;5074013;28;20102;-59
2022/01/15 05:03:05;;;;;;;150.50;38.60;;;3.90;99.90;;;3.88;100.00;102891.66;5074001;28;20140;-59
2022/01/15 05:05:33;;;;;;;230.67;39.43;;;3.80;99.90;;;4.00;100.00;102876.63;5073856;28;20098;-59
2022/01/15 05:08:05;;;;;;;159.43;37.57;;;4.00;99.90;;;4.04;100.00;102877.69;5073578;28;20498;-59
2022/01/15 05:10:35;;;;;;;221.77;38.97;;;4.00;99.90;;;3.77;100.00;102881.41;5073632;28;20513;-59
2022/01/15 05:13:03;;;;;;;160.83;39.47;;;3.80;99.90;;;3.96;100.00;102885.13;5074114;28;20060;-60
2022/01/15 05:15:32;;;;;;;157.17;39.47;;;3.90;99.90;;;3.88;100.00;102873.34;5073542;28;20110;-59
2022/01/15 05:18:00;;;;;;;188.80;38.23;;;3.90;99.90;;;3.98;100.00;102864.25;5073673;28;20040;-59
2022/01/15 05:20:28;;;;;;;179.53;39.77;;;4.00;99.90;;;3.90;100.00;102868.19;5073541;28;20143;-60
2022/01/15 05:22:57;;;;;;;245.40;38.73;;;3.90;99.90;;;3.71;100.00;102865.38;5073186;28;20044;-60
2022/01/15 05:25:27;;;;;;;214.50;41.43;;;3.80;99.90;;;3.78;100.00;102857.94;5073708;28;20049;-60
2022/01/15 05:27:55;;;;;;;230.90;42.33;;;3.80;99.90;;;3.71;100.00;102855.81;5073143;28;20478;-59
2022/01/15 05:30:24;;;;;;;220.80;42.23;;;3.70;99.90;;;3.74;100.00;102841.97;5073043;28;20525;-59
2022/01/15 05:32:52;;;;;;;206.47;40.77;;;3.80;99.90;;;3.78;100.00;102844.84;5073267;28;20091;-59
2022/01/15 05:35:25;;;;;;;156.37;42.00;;;3.80;99.90;;;3.84;100.00;102854.75;5072939;28;20209;-59
2022/01/15 05:37:54;;;;;;;246.77;39.40;;;3.80;99.90;;;3.61;100.00;102853.50;5072951;28;20083;-59
2022/01/15 05:40:23;;;;;;;225.17;40.30;;;3.70;99.90;;;3.54;100.00;102843.53;5073199;28;20068;-59
2022/01/15 05:42:53;;;;;;;301.77;40.27;;;3.60;99.90;;;3.41;100.00;102846.25;5072920;28;20386;-60
2022/01/15 05:45:24;;;;;;;225.18;39.72;;;3.50;99.90;;;3.46;100.00;102836.97;5072945;28;20482;-59
2022/01/15 05:47:53;;;;;;;182.50;36.80;;;3.50;99.90;;;3.52;100.00;102832.06;5072788;28;20048;-59
2022/01/15 05:50:21;;;;;;;219.63;42.53;;;3.50;99.90;;;3.55;100.00;102827.00;5072712;28;20048;-59
2022/01/15 05:52:50;;;;;;;275.53;41.57;;;3.60;99.90;;;3.48;100.00;102832.72;5072988;28;20075;-59
2022/01/15 05:55:18;;;;;;;240.23;41.87;;;3.50;99.90;;;3.49;100.00;102838.03;5072663;28;20094;-59
2022/01/15 05:57:46;;;;;;;236.47;42.07;;;3.50;99.90;;;3.67;100.00;102825.06;5072867;28;20071;-59
2022/01/15 06:00:17;;;;;;;322.93;45.57;;;3.70;99.90;;;3.54;100.00;102819.97;5073094;28;20068;-59
2022/01/15 06:02:45;;;;;;;;;;;3.60;99.90;;;3.55;100.00;102822.69;5073570;28;20060;-59
2022/01/15 06:05:14;;;;;;;403.37;46.97;;;3.60;99.90;;;3.61;100.00;102817.78;5072802;28;19973;-59
2022/01/15 06:07:42;;;;;;;215.73;41.07;;;3.50;99.90;;;3.55;100.00;102814.81;5072402;28;20052;-59
2022/01/15 06:10:11;;;;;;;196.83;40.83;;;3.60;99.90;;;3.52;100.00;102812.03;5072481;28;20442;-59
2022/01/15 06:12:44;;;;;;;258.53;41.80;;;3.50;99.90;;;3.46;100.00;102823.88;5072873;28;20389;-59
2022/01/15 06:15:16;;;;;;;226.27;41.63;;;3.50;99.90;;;3.55;100.00;102822.69;5073289;28;20048;-59
2022/01/15 06:17:45;;;;;;;230.40;41.77;;;3.60;99.90;;;3.49;100.00;102842.34;5073368;28;20176;-60
2022/01/15 06:20:16;;;;;;;197.60;41.57;;;3.60;99.90;;;3.53;100.00;102828.63;5071352;28;20561;-59
2022/01/15 06:22:44;;;;;;;;;;;3.50;99.90;;;3.50;100.00;102828.47;5072879;28;20451;-59
2022/01/15 06:25:13;;;;;;;257.90;42.13;;;3.50;99.90;;;3.53;100.00;102823.41;5071953;28;19959;-59
2022/01/15 06:27:41;;;;;;;201.87;42.53;;;3.60;99.90;;;3.44;100.00;102823.81;5072341;28;20045;-59
2022/01/15 06:30:10;;;;;;;229.43;42.03;;;3.40;99.90;;;3.47;100.00;102823.97;5072019;28;20095;-59
2022/01/15 06:32:40;;;;;;;259.63;43.70;;;3.50;99.90;;;3.45;100.00;102812.50;5072188;28;20127;-59
2022/01/15 06:35:13;;;;;;;280.92;44.28;;;3.50;99.90;;;3.47;100.00;102813.50;5071821;28;20075;-59
2022/01/15 06:37:42;;;;;;;236.10;45.30;;;3.50;99.90;;;3.26;100.00;102774.78;5071926;28;20053;-59
2022/01/15 06:40:13;;;;;;;396.90;47.60;;;3.50;99.90;;;3.56;100.00;102816.63;5071799;28;20130;-59
2022/01/15 06:42:41;;;;;;;294.23;45.00;;;3.60;99.90;;;3.50;100.00;102812.78;5070603;28;20479;-59
2022/01/15 06:45:11;;;;;;;286.13;44.97;;;3.50;99.90;;;3.52;100.00;102811.16;5071646;28;20124;-59
2022/01/15 06:47:40;;;;;;;312.67;45.95;;;3.50;99.90;;;3.54;100.00;102812.13;5070366;28;20154;-59
2022/01/15 06:50:10;;;;;;;200.17;41.40;;;3.50;99.90;;;3.71;100.00;102823.50;5071619;28;20498;-59
2022/01/15 06:52:39;;;;;;;132.93;39.05;;;3.60;99.90;;;3.89;100.00;102819.28;5071522;28;20385;-59
2022/01/15 06:55:10;;;;;;;174.47;38.60;;;3.80;99.90;;;3.85;100.00;102813.00;5071774;28;20090;-59
2022/01/15 06:57:39;;;;;;;157.67;40.07;;;3.90;99.90;;;3.85;100.00;102823.47;5072079;28;20036;-59
2022/01/15 07:00:10;;;;;;;177.27;37.53;;;3.90;99.90;;;3.79;100.00;102817.88;5071610;28;20156;-59
2022/01/15 07:02:40;;;;;;;171.60;40.90;;;3.80;99.90;;;3.71;100.00;102819.19;5071749;28;20045;-60
2022/01/15 07:05:10;;;;;;;166.82;38.75;;;3.70;99.90;;;3.65;100.00;102816.22;5071589;28;20143;-59
2022/01/15 07:07:44;;;;;;;197.00;38.00;;;3.60;99.90;;;3.57;100.00;102825.38;5071507;28;20076;-59
2022/01/15 07:10:13;;;;;;;264.03;37.00;;;3.60;99.90;;;3.43;100.00;102811.53;5071977;28;20044;-59
2022/01/15 07:12:41;;;;;;;276.50;40.07;;;3.50;99.90;;;3.24;100.00;102787.78;5071353;28;20043;-59
2022/01/15 07:15:11;;;;;;;263.33;40.97;;;3.40;99.90;;;3.32;100.00;102814.38;5071674;28;20075;-59
2022/01/15 07:17:46;;;;;;;294.33;40.33;;;3.40;99.90;;;3.33;100.00;102818.78;5071446;28;20147;-59
2022/01/15 07:20:17;;;;;;;328.73;39.77;;;3.30;99.90;;;3.30;100.00;102813.38;5070921;28;20064;-59
2022/01/15 07:22:46;;;;;;;265.53;38.80;;;3.30;99.90;;;3.35;100.00;102814.53;5071474;28;20084;-59
2022/01/15 07:25:14;;;;;;;305.80;41.70;;;3.30;99.90;;;3.31;100.00;102817.81;5071257;28;20474;-59
2022/01/15 07:27:43;;;;;;;338.00;40.27;;;3.30;99.90;;;3.33;100.00;102793.53;5071347;28;20131;-59
2022/01/15 07:30:14;;;;;;;280.77;38.57;;;3.40;99.90;;;3.42;100.00;102799.28;5071353;28;20052;-59
2022/01/15 07:32:45;;;;;;;294.73;39.27;;;3.40;99.90;;;3.46;100.00;102800.34;5071662;28;20041;-59
2022/01/15 07:35:16;;;;;;;251.13;40.70;;;3.40;99.90;;;3.30;100.00;102780.28;5071273;28;20127;-59
2022/01/15 07:37:44;;;;;;;237.47;36.93;;;3.40;99.90;;;3.44;100.00;102801.97;5071576;28;20032;-59
2022/01/15 07:40:13;;;;;;;211.70;35.30;;;3.50;99.90;;;3.55;100.00;102800.84;5071399;28;20071;-59
2022/01/15 07:42:42;;;;;;;247.60;36.27;;;3.50;99.90;;;3.50;100.00;102792.72;5071655;28;20128;-60
2022/01/15 07:45:14;;;;;;;233.97;39.60;;;3.50;99.90;;;3.50;100.00;102787.50;5071271;28;20053;-58
2022/01/15 07:47:44;;;;;;;227.33;38.73;;;3.50;99.90;;;3.55;100.00;102799.13;5071460;28;20044;-59
2022/01/15 07:50:15;;;;;;;169.07;35.70;;;3.60;99.90;;;3.77;100.00;102792.44;5071353;28;20041;-59
2022/01/15 07:52:44;;;;;;;204.53;39.00;;;3.70;99.90;;;3.72;100.00;102802.66;5071323;28;20065;-59
2022/01/15 07:55:12;;;;;;;188.63;38.40;;;3.70;99.90;;;3.71;100.00;102793.00;5071212;28;20050;-59
2022/01/15 07:58:01;;;;;;;184.40;40.67;;;3.70;99.90;;;3.96;100.00;102789.97;5071183;28;20048;-59
2022/01/15 08:00:30;;;;;;;223.80;41.97;;;3.90;99.90;;;4.01;100.00;102783.25;5069881;28;20489;-60
2022/01/15 08:03:00;;;;;;;267.60;44.87;;;3.90;99.90;;;3.79;100.00;102791.72;5070718;28;20498;-59
2022/01/15 08:05:28;;;;;;;242.07;43.25;;;3.80;99.90;;;3.65;100.00;102788.34;5070862;28;20083;-60
2022/01/15 08:07:57;;;;;;;253.00;42.77;;;3.70;99.90;;;3.42;100.00;102785.28;5070903;28;20143;-60
2022/01/15 08:10:25;;;;;;;244.83;46.87;;;3.50;99.90;;;3.39;100.00;102777.25;5070665;28;20136;-60
2022/01/15 08:12:53;;;;;;;280.67;47.53;;;3.40;99.90;;;3.34;100.00;102774.41;5071092;28;20068;-60
2022/01/15 08:15:25;;;;;;;286.17;44.90;;;3.40;99.90;;;3.27;100.00;102769.66;5070405;28;20056;-60
2022/01/15 08:17:53;;;;;;;270.17;48.77;;;3.40;99.90;;;3.28;100.00;102774.06;5071238;28;20052;-60
2022/01/15 08:20:24;;;;;;;253.33;48.10;;;3.30;99.90;;;3.32;100.00;102775.13;5071132;28;20139;-60
2022/01/15 08:22:52;;;;;;;252.23;46.73;;;3.40;99.90;;;3.41;100.00;102775.63;5070556;28;20043;-60
2022/01/15 08:25:24;;;;;;;273.10;48.60;;;3.40;99.90;;;3.39;100.00;102769.41;5071092;28;20439;-60
2022/01/15 08:27:53;;;;;;;195.07;46.83;;;3.40;99.90;;;3.50;100.00;102776.16;5071202;28;20086;-59
2022/01/15 08:30:23;;;;;;;266.33;45.97;;;3.40;99.90;;;3.32;100.00;102782.97;5070809;28;20072;-59
2022/01/15 08:32:51;;;;;;;201.85;46.60;;;3.40;99.90;;;3.28;100.00;102770.56;5073486;28;20052;-60
2022/01/15 08:35:20;;;;;;;215.20;46.90;;;3.30;99.90;;;3.27;100.00;102767.03;5074033;28;20410;-61
2022/01/15 08:37:50;;;;;;;266.50;47.27;;;3.30;99.90;;;3.34;100.00;102768.28;5073974;28;20044;-59
2022/01/15 08:40:20;;;;;;;179.80;45.03;;;3.30;99.90;;;3.29;100.00;102767.13;5074259;28;20045;-60
2022/01/15 08:42:49;;;;;;;163.68;45.08;;;3.30;99.90;;;3.26;100.00;102761.72;5074042;28;20135;-59
2022/01/15 08:45:19;;;;;;;121.40;42.73;;;3.30;99.90;;;3.12;100.00;102770.50;5073918;28;20100;-60
2022/01/15 08:47:48;;;;;;;96.63;38.23;;;3.20;99.90;;;3.31;100.00;102770.75;5074413;28;20331;-60
2022/01/15 08:50:17;;;;;;;89.20;37.00;;;3.20;99.90;;;3.26;100.00;102787.88;5073907;28;20298;-59
2022/01/15 08:52:46;;;;;;;94.07;38.90;;;3.20;99.90;;;3.34;100.00;102786.59;5074392;28;20123;-59
2022/01/15 08:55:17;;;;;;;97.40;39.77;;;3.30;99.90;;;3.27;100.00;102787.06;5073860;28;20094;-62
2022/01/15 08:57:45;;;;;;;91.60;38.43;;;3.30;99.90;;;3.43;100.00;102785.38;5073840;28;20866;-61
2022/01/15 09:00:18;;;;;;;94.13;39.27;;;3.40;99.90;;;3.32;100.00;102764.69;5073970;28;20459;-60
2022/01/15 09:02:47;;;;;;;90.57;39.07;;;3.40;99.90;;;3.52;100.00;102790.22;5089702;28;20389;-62
2022/01/15 09:05:16;;;;;;;101.27;40.40;;;3.50;99.90;;;3.54;100.00;102788.59;5074275;28;20435;-61
2022/01/15 09:07:44;;;;;;;98.67;39.87;;;3.50;99.90;;;3.48;100.00;102778.66;5073770;28;20445;-61
2022/01/15 09:10:14;;;;;;;90.53;40.17;;;3.50;99.90;;;3.40;100.00;102794.78;5073885;28;20075;-61
2022/01/15 09:12:43;;;;;;;88.15;40.80;;;3.50;99.90;;;3.33;100.00;102780.44;5073751;28;20071;-60
2022/01/15 09:15:29;;;;;;;92.30;41.03;;;3.30;99.90;;;3.33;100.00;102769.97;5073964;28;20143;-59
2022/01/15 09:17:57;;;;;;;96.13;40.60;;;3.30;99.90;;;3.48;100.00;102788.25;5073651;28;20040;-60
2022/01/15 09:20:26;;;;;;;101.60;40.57;;;3.40;99.90;;;3.60;100.00;102766.25;5073661;28;20071;-60
2022/01/15 09:22:55;;;;;;;98.60;42.90;;;3.50;99.90;;;3.50;100.00;102745.66;5073242;28;20049;-59
2022/01/15 09:25:26;;;;;;;91.07;41.17;;;3.60;99.90;;;3.65;100.00;102764.81;5073121;28;20079;-59
2022/01/15 09:30:40;;;;;;;93.60;42.63;;;3.70;99.90;;;3.59;100.00;102781.88;5072917;28;20158;-61
2022/01/15 09:33:09;;;;;;;96.63;41.57;;;3.60;99.90;;;3.71;100.00;102761.63;5073058;28;20117;-61
2022/01/15 09:35:38;;;;;;;99.40;43.03;;;3.70;99.90;;;3.60;100.00;102770.63;5072960;28;20048;-60
2022/01/15 09:38:08;;;;;;;97.67;41.73;;;3.70;99.90;;;3.52;100.00;102764.06;5072730;28;20071;-60
2022/01/15 09:40:39;;;;;;;96.38;40.50;;;3.50;99.90;;;3.65;100.00;102764.81;5073246;28;20465;-60
2022/01/15 09:43:08;;;;;;;87.13;41.60;;;3.60;99.90;;;3.98;100.00;102767.41;5072561;28;20048;-60
2022/01/15 09:45:39;;;;;;;90.53;41.17;;;3.90;99.90;;;3.92;100.00;102733.97;5072526;28;20040;-60
2022/01/15 09:48:08;;;;;;;;;;;4.00;99.90;;;4.23;100.00;102774.00;5073168;28;20275;-60
2022/01/15 09:50:43;;;;;;;84.77;37.37;;;4.20;99.90;;;4.02;100.00;102745.81;5072763;28;20030;-61
2022/01/15 09:53:14;;;;;;;99.97;37.90;;;4.20;99.90;;;4.27;100.00;102777.66;5072565;28;20059;-60
2022/01/15 09:55:43;;;;;;;;;;;4.30;99.90;;;4.22;100.00;102774.81;5072936;28;20056;-60
2022/01/15 09:58:12;;;;;;;78.20;33.80;;;4.30;99.90;;;4.16;100.00;102778.84;5072857;28;20015;-60
2022/01/15 10:00:40;;;;;;;64.57;31.80;;;4.20;99.90;;;3.86;100.00;102783.38;5072430;28;20082;-60
2022/01/15 10:03:09;;;;;;;60.57;32.83;;;4.00;99.90;;;3.81;100.00;102773.47;5072333;28;20052;-60
2022/01/15 10:05:38;;;;;;;64.23;31.67;;;3.80;99.90;;;3.86;100.00;102767.66;5072917;28;20029;-60
2022/01/15 10:08:09;;;;;;;71.07;34.30;;;3.90;99.90;;;3.93;100.00;102779.38;5072304;28;20110;-60
2022/01/15 10:10:40;;;;;;;71.43;34.30;;;4.00;99.90;;;3.91;100.00;102774.03;5072237;28;20165;-61
2022/01/15 10:13:18;;;;;;;67.37;32.53;;;4.00;99.90;;;3.87;100.00;102787.75;5072584;28;20167;-60
2022/01/15 10:15:50;;;;;;;67.33;31.20;;;3.90;99.90;;;3.84;100.00;102774.53;5071315;28;20068;-60
2022/01/15 10:18:24;;;;;;;67.83;31.50;;;3.90;99.90;;;3.78;100.00;102760.19;5072140;28;20103;-60
2022/01/15 10:20:55;;;;;;;63.27;31.03;;;3.90;99.90;;;3.82;100.00;102775.25;5072211;28;20048;-60
2022/01/15 10:23:25;;;;;;;64.57;28.50;;;3.90;99.90;;;3.68;100.00;102771.91;5072071;28;20045;-60
2022/01/15 10:26:15;;;;;;;66.32;31.15;;;3.80;99.90;;;3.68;100.00;102758.81;5071716;28;20047;-59
2022/01/15 10:28:57;;;;;;;64.87;31.87;;;3.70;99.90;;;3.58;100.00;102764.41;5072003;28;20443;-60